N420UT KIAD-KPIE
Flight info
| Callsign | N420UT |
|---|---|
| Flight time | 2h 14m |
| Altitude | 43000 |
| Route | JDUBB4 RRSIN GSO Q75 TEUFL BAAMF DADES2 |
| Aircraft | HDJT/L-SBDGRWYZ/LB2 |
Departure
| Time | 2026-04-26 21:13 |
|---|---|
| Airport | Washington Dulles International Airport (KIAD) |
Arrival
| Time | 2026-04-26 23:27 |
|---|---|
| Airport | St. Petersburg Clearwater International Airport (KPIE) |
| Time | Latitude | Longitude | Altitude | Speed | Heading |
|---|---|---|---|---|---|
| 2026-04-26 20:41 | 38.95543 | -77.44213 | 287 ft | 0 kts | 88° |
| 2026-04-26 21:05 | 38.95543 | -77.44202 | 296 ft | 5 kts | 88° |
| 2026-04-26 21:06 | 38.95530 | -77.44133 | 287 ft | 10 kts | 113° |
| 2026-04-26 21:06 | 38.95499 | -77.44056 | 287 ft | 10 kts | 119° |
| 2026-04-26 21:06 | 38.95474 | -77.43977 | 287 ft | 9 kts | 134° |
| 2026-04-26 21:06 | 38.95415 | -77.43968 | 287 ft | 9 kts | 181° |
| 2026-04-26 21:07 | 38.95339 | -77.43969 | 287 ft | 13 kts | 180° |
| 2026-04-26 21:07 | 38.95240 | -77.43970 | 287 ft | 16 kts | 181° |
| 2026-04-26 21:07 | 38.95119 | -77.43972 | 287 ft | 18 kts | 181° |
| 2026-04-26 21:07 | 38.94994 | -77.43974 | 287 ft | 18 kts | 180° |
| 2026-04-26 21:08 | 38.94871 | -77.43976 | 287 ft | 18 kts | 180° |
| 2026-04-26 21:08 | 38.94750 | -77.43977 | 287 ft | 17 kts | 180° |
| 2026-04-26 21:08 | 38.94631 | -77.43979 | 287 ft | 17 kts | 180° |
| 2026-04-26 21:08 | 38.94514 | -77.43981 | 287 ft | 17 kts | 180° |
| 2026-04-26 21:09 | 38.94400 | -77.43982 | 287 ft | 16 kts | 180° |
| 2026-04-26 21:09 | 38.94287 | -77.43984 | 287 ft | 16 kts | 180° |
| 2026-04-26 21:09 | 38.94176 | -77.43985 | 287 ft | 16 kts | 180° |
| 2026-04-26 21:09 | 38.94067 | -77.43987 | 287 ft | 16 kts | 180° |
| 2026-04-26 21:10 | 38.93959 | -77.43988 | 287 ft | 15 kts | 180° |
| 2026-04-26 21:10 | 38.93850 | -77.43989 | 287 ft | 17 kts | 180° |
| 2026-04-26 21:10 | 38.93711 | -77.43991 | 287 ft | 22 kts | 180° |
| 2026-04-26 21:10 | 38.93550 | -77.43993 | 287 ft | 23 kts | 180° |
| 2026-04-26 21:11 | 38.93394 | -77.43996 | 287 ft | 17 kts | 180° |
| 2026-04-26 21:11 | 38.93326 | -77.43945 | 287 ft | 12 kts | 91° |
| 2026-04-26 21:11 | 38.93326 | -77.43844 | 288 ft | 11 kts | 90° |
| 2026-04-26 21:11 | 38.93356 | -77.43778 | 292 ft | 8 kts | 24° |
| 2026-04-26 21:12 | 38.93397 | -77.43748 | 293 ft | 7 kts | 33° |
| 2026-04-26 21:12 | 38.93438 | -77.43715 | 294 ft | 7 kts | 31° |
| 2026-04-26 21:12 | 38.93490 | -77.43675 | 298 ft | 11 kts | 31° |
| 2026-04-26 21:12 | 38.93571 | -77.43626 | 297 ft | 15 kts | 359° |
| 2026-04-26 21:13 | 38.93888 | -77.43622 | 299 ft | 90 kts | 0° |
| 2026-04-26 21:13 | 38.94736 | -77.43606 | 443 ft | 140 kts | 1° |
| 2026-04-26 21:13 | 38.95805 | -77.43621 | 857 ft | 168 kts | 357° |
| 2026-04-26 21:13 | 38.97007 | -77.44035 | 1478 ft | 191 kts | 335° |
| 2026-04-26 21:14 | 38.98109 | -77.45060 | 2339 ft | 198 kts | 320° |
| 2026-04-26 21:14 | 38.99078 | -77.46286 | 3477 ft | 189 kts | 314° |
| 2026-04-26 21:14 | 38.99767 | -77.47784 | 4275 ft | 207 kts | 292° |
| 2026-04-26 21:14 | 39.00012 | -77.49752 | 4443 ft | 245 kts | 270° |
| 2026-04-26 21:15 | 38.99651 | -77.51945 | 4450 ft | 246 kts | 246° |
| 2026-04-26 21:15 | 38.98705 | -77.53661 | 4927 ft | 235 kts | 221° |
| 2026-04-26 21:15 | 38.97592 | -77.55251 | 5419 ft | 243 kts | 231° |
| 2026-04-26 21:15 | 38.96325 | -77.56686 | 5929 ft | 245 kts | 213° |
| 2026-04-26 21:16 | 38.94759 | -77.57540 | 6451 ft | 248 kts | 188° |
| 2026-04-26 21:16 | 38.93021 | -77.57735 | 6949 ft | 252 kts | 180° |
| 2026-04-26 21:16 | 38.91258 | -77.57710 | 7605 ft | 253 kts | 175° |
| 2026-04-26 21:16 | 38.89494 | -77.57609 | 8453 ft | 255 kts | 177° |
| 2026-04-26 21:17 | 38.87706 | -77.57568 | 9257 ft | 259 kts | 179° |
| 2026-04-26 21:17 | 38.85895 | -77.57548 | 10082 ft | 262 kts | 179° |
| 2026-04-26 21:17 | 38.84060 | -77.57514 | 10834 ft | 265 kts | 179° |
| 2026-04-26 21:17 | 38.82206 | -77.57473 | 11594 ft | 268 kts | 179° |
| 2026-04-26 21:18 | 38.80327 | -77.57436 | 12359 ft | 272 kts | 179° |
| 2026-04-26 21:18 | 38.78426 | -77.57398 | 13132 ft | 275 kts | 179° |
| 2026-04-26 21:18 | 38.76498 | -77.57361 | 13914 ft | 279 kts | 179° |
| 2026-04-26 21:18 | 38.74547 | -77.57322 | 14617 ft | 282 kts | 179° |
| 2026-04-26 21:19 | 38.72572 | -77.57283 | 15329 ft | 285 kts | 179° |
| 2026-04-26 21:19 | 38.70575 | -77.57244 | 16046 ft | 289 kts | 179° |
| 2026-04-26 21:19 | 38.68553 | -77.57203 | 16767 ft | 293 kts | 179° |
| 2026-04-26 21:19 | 38.66504 | -77.57163 | 17498 ft | 296 kts | 179° |
| 2026-04-26 21:20 | 38.64431 | -77.57122 | 18236 ft | 300 kts | 179° |
| 2026-04-26 21:20 | 38.62335 | -77.57081 | 18913 ft | 303 kts | 179° |
| 2026-04-26 21:20 | 38.60219 | -77.57039 | 19599 ft | 305 kts | 179° |
| 2026-04-26 21:20 | 38.58091 | -77.56998 | 20291 ft | 307 kts | 179° |
| 2026-04-26 21:21 | 38.55944 | -77.56955 | 20991 ft | 310 kts | 179° |
| 2026-04-26 21:21 | 38.53763 | -77.56913 | 21620 ft | 313 kts | 179° |
| 2026-04-26 21:21 | 38.51586 | -77.56869 | 22400 ft | 314 kts | 179° |
| 2026-04-26 21:21 | 38.49388 | -77.56827 | 23136 ft | 317 kts | 179° |
| 2026-04-26 21:22 | 38.47172 | -77.56783 | 23846 ft | 320 kts | 179° |
| 2026-04-26 21:22 | 38.44937 | -77.56740 | 24464 ft | 322 kts | 180° |
| 2026-04-26 21:22 | 38.42698 | -77.56696 | 25114 ft | 323 kts | 180° |
| 2026-04-26 21:23 | 38.39033 | -77.57475 | 26088 ft | 323 kts | 204° |
| 2026-04-26 21:23 | 38.37050 | -77.58789 | 26664 ft | 321 kts | 217° |
| 2026-04-26 21:23 | 38.35232 | -77.60456 | 27208 ft | 323 kts | 219° |
| 2026-04-26 21:23 | 38.33397 | -77.62128 | 27757 ft | 326 kts | 217° |
| 2026-04-26 21:24 | 38.31497 | -77.63721 | 28294 ft | 328 kts | 216° |
| 2026-04-26 21:24 | 38.29608 | -77.65363 | 28824 ft | 328 kts | 222° |
| 2026-04-26 21:24 | 38.27863 | -77.67246 | 29326 ft | 330 kts | 224° |
| 2026-04-26 21:24 | 38.26122 | -77.69155 | 29837 ft | 332 kts | 224° |
| 2026-04-26 21:25 | 38.24351 | -77.71052 | 30313 ft | 334 kts | 224° |
| 2026-04-26 21:25 | 38.22565 | -77.72950 | 30709 ft | 336 kts | 224° |
| 2026-04-26 21:25 | 38.20783 | -77.74859 | 31195 ft | 334 kts | 224° |
| 2026-04-26 21:25 | 38.19010 | -77.76762 | 31683 ft | 333 kts | 223° |
| 2026-04-26 21:26 | 38.17242 | -77.78654 | 32157 ft | 332 kts | 223° |
| 2026-04-26 21:26 | 38.15481 | -77.80535 | 32626 ft | 330 kts | 223° |
| 2026-04-26 21:26 | 38.13724 | -77.82413 | 33093 ft | 329 kts | 223° |
| 2026-04-26 21:26 | 38.11974 | -77.84282 | 33551 ft | 328 kts | 223° |
| 2026-04-26 21:27 | 38.10228 | -77.86145 | 33999 ft | 327 kts | 223° |
| 2026-04-26 21:27 | 38.08488 | -77.88000 | 34402 ft | 326 kts | 223° |
| 2026-04-26 21:27 | 38.06755 | -77.89848 | 34778 ft | 325 kts | 223° |
| 2026-04-26 21:27 | 38.05049 | -77.91665 | 35148 ft | 324 kts | 223° |
| 2026-04-26 21:28 | 38.03326 | -77.93499 | 35517 ft | 323 kts | 223° |
| 2026-04-26 21:28 | 38.01610 | -77.95325 | 35862 ft | 322 kts | 223° |
| 2026-04-26 21:28 | 37.99893 | -77.97149 | 36179 ft | 322 kts | 223° |
| 2026-04-26 21:28 | 37.98175 | -77.98975 | 36502 ft | 322 kts | 223° |
| 2026-04-26 21:29 | 37.96459 | -78.00797 | 36826 ft | 321 kts | 223° |
| 2026-04-26 21:29 | 37.94748 | -78.02612 | 37169 ft | 320 kts | 224° |
| 2026-04-26 21:29 | 37.93042 | -78.04421 | 37508 ft | 319 kts | 224° |
| 2026-04-26 21:29 | 37.91340 | -78.06225 | 37843 ft | 319 kts | 224° |
| 2026-04-26 21:30 | 37.89642 | -78.08024 | 38176 ft | 318 kts | 224° |
| 2026-04-26 21:30 | 37.87946 | -78.09818 | 38495 ft | 317 kts | 224° |
| 2026-04-26 21:30 | 37.86257 | -78.11605 | 38795 ft | 317 kts | 224° |
| 2026-04-26 21:30 | 37.84567 | -78.13391 | 39048 ft | 316 kts | 224° |
| 2026-04-26 21:31 | 37.82883 | -78.15171 | 39285 ft | 316 kts | 224° |
| 2026-04-26 21:31 | 37.81198 | -78.16949 | 39519 ft | 315 kts | 224° |
| 2026-04-26 21:31 | 37.79516 | -78.18725 | 39748 ft | 315 kts | 224° |
| 2026-04-26 21:31 | 37.77833 | -78.20498 | 39965 ft | 315 kts | 224° |
| 2026-04-26 21:32 | 37.76153 | -78.22269 | 40186 ft | 314 kts | 224° |
| 2026-04-26 21:32 | 37.74474 | -78.24037 | 40399 ft | 314 kts | 224° |
| 2026-04-26 21:32 | 37.72796 | -78.25804 | 40611 ft | 314 kts | 224° |
| 2026-04-26 21:32 | 37.71118 | -78.27569 | 40825 ft | 314 kts | 224° |
| 2026-04-26 21:33 | 37.69441 | -78.29332 | 41037 ft | 313 kts | 224° |
| 2026-04-26 21:33 | 37.67766 | -78.31091 | 41251 ft | 313 kts | 224° |
| 2026-04-26 21:33 | 37.66091 | -78.32851 | 41457 ft | 313 kts | 224° |
| 2026-04-26 21:33 | 37.64419 | -78.34605 | 41657 ft | 313 kts | 225° |
| 2026-04-26 21:34 | 37.62747 | -78.36359 | 41849 ft | 313 kts | 225° |
| 2026-04-26 21:34 | 37.61074 | -78.38112 | 42031 ft | 312 kts | 225° |
| 2026-04-26 21:34 | 37.59404 | -78.39861 | 42222 ft | 312 kts | 225° |
| 2026-04-26 21:34 | 37.57733 | -78.41609 | 42416 ft | 312 kts | 225° |
| 2026-04-26 21:35 | 37.56066 | -78.43355 | 42604 ft | 312 kts | 225° |
| 2026-04-26 21:35 | 37.54398 | -78.45099 | 42792 ft | 311 kts | 225° |
| 2026-04-26 21:35 | 37.52730 | -78.46841 | 42977 ft | 311 kts | 225° |
| 2026-04-26 21:35 | 37.51065 | -78.48580 | 43132 ft | 312 kts | 225° |
| 2026-04-26 21:36 | 37.47668 | -78.52129 | 43131 ft | 322 kts | 225° |
| 2026-04-26 21:36 | 37.44155 | -78.55772 | 43135 ft | 332 kts | 224° |
| 2026-04-26 21:37 | 37.40562 | -78.59474 | 43141 ft | 340 kts | 224° |
| 2026-04-26 21:37 | 37.36865 | -78.63289 | 43132 ft | 348 kts | 224° |
| 2026-04-26 21:38 | 37.33089 | -78.67177 | 43137 ft | 354 kts | 224° |
| 2026-04-26 21:38 | 37.29249 | -78.71126 | 43133 ft | 359 kts | 224° |
| 2026-04-26 21:39 | 37.25355 | -78.75125 | 43122 ft | 364 kts | 224° |
| 2026-04-26 21:39 | 37.21413 | -78.79167 | 43122 ft | 368 kts | 224° |
| 2026-04-26 21:40 | 37.17434 | -78.83242 | 43106 ft | 371 kts | 224° |
| 2026-04-26 21:40 | 37.13420 | -78.87346 | 43110 ft | 374 kts | 224° |
| 2026-04-26 21:41 | 37.09375 | -78.91477 | 43105 ft | 376 kts | 224° |
| 2026-04-26 21:41 | 37.05305 | -78.95628 | 43107 ft | 378 kts | 224° |
| 2026-04-26 21:42 | 37.01214 | -78.99792 | 43106 ft | 380 kts | 224° |
| 2026-04-26 21:42 | 36.97106 | -79.03971 | 43104 ft | 381 kts | 224° |
| 2026-04-26 21:43 | 36.92992 | -79.08162 | 43094 ft | 382 kts | 224° |
| 2026-04-26 21:43 | 36.88889 | -79.12393 | 43092 ft | 383 kts | 224° |
| 2026-04-26 21:44 | 36.84789 | -79.16587 | 43098 ft | 384 kts | 224° |
| 2026-04-26 21:44 | 36.80659 | -79.20819 | 43099 ft | 385 kts | 224° |
| 2026-04-26 21:45 | 36.76517 | -79.25051 | 43102 ft | 385 kts | 224° |
| 2026-04-26 21:45 | 36.72368 | -79.29287 | 43099 ft | 386 kts | 224° |
| 2026-04-26 21:46 | 36.68212 | -79.33522 | 43100 ft | 386 kts | 224° |
| 2026-04-26 21:46 | 36.64053 | -79.37755 | 43102 ft | 386 kts | 224° |
| 2026-04-26 21:47 | 36.59888 | -79.41987 | 43105 ft | 387 kts | 224° |
| 2026-04-26 21:47 | 36.55716 | -79.46222 | 43078 ft | 387 kts | 224° |
| 2026-04-26 21:48 | 36.51542 | -79.50450 | 43075 ft | 387 kts | 224° |
| 2026-04-26 21:48 | 36.47363 | -79.54680 | 43072 ft | 388 kts | 224° |
| 2026-04-26 21:49 | 36.43177 | -79.58910 | 43069 ft | 388 kts | 224° |
| 2026-04-26 21:49 | 36.38987 | -79.63136 | 43068 ft | 388 kts | 224° |
| 2026-04-26 21:50 | 36.35502 | -79.66648 | 43067 ft | 388 kts | 224° |
| 2026-04-26 21:50 | 36.30599 | -79.71581 | 43099 ft | 389 kts | 224° |
| 2026-04-26 21:51 | 36.26402 | -79.75799 | 43093 ft | 388 kts | 224° |
| 2026-04-26 21:51 | 36.22203 | -79.80011 | 43064 ft | 389 kts | 224° |
| 2026-04-26 21:52 | 36.17999 | -79.84223 | 43072 ft | 389 kts | 224° |
| 2026-04-26 21:52 | 36.13820 | -79.88403 | 43074 ft | 389 kts | 224° |
| 2026-04-26 21:53 | 36.09608 | -79.92610 | 43076 ft | 389 kts | 224° |
| 2026-04-26 21:53 | 36.05351 | -79.96759 | 43080 ft | 392 kts | 219° |
| 2026-04-26 21:54 | 36.00375 | -79.99710 | 43090 ft | 401 kts | 207° |
| 2026-04-26 21:54 | 35.95200 | -80.02276 | 43082 ft | 401 kts | 208° |
| 2026-04-26 21:55 | 35.90016 | -80.04836 | 43075 ft | 402 kts | 207° |
| 2026-04-26 21:55 | 35.84821 | -80.07399 | 43078 ft | 402 kts | 207° |
| 2026-04-26 21:56 | 35.79625 | -80.09958 | 43062 ft | 402 kts | 207° |
| 2026-04-26 21:56 | 35.74426 | -80.12516 | 43064 ft | 402 kts | 207° |
| 2026-04-26 21:57 | 35.69224 | -80.15071 | 43066 ft | 403 kts | 207° |
| 2026-04-26 21:57 | 35.64019 | -80.17625 | 43065 ft | 403 kts | 207° |
| 2026-04-26 21:58 | 35.58812 | -80.20175 | 43083 ft | 403 kts | 207° |
| 2026-04-26 21:58 | 35.53598 | -80.22726 | 43092 ft | 403 kts | 207° |
| 2026-04-26 21:59 | 35.48418 | -80.25257 | 43099 ft | 403 kts | 207° |
| 2026-04-26 21:59 | 35.43201 | -80.27801 | 43099 ft | 404 kts | 207° |
| 2026-04-26 22:00 | 35.37980 | -80.30345 | 43093 ft | 404 kts | 207° |
| 2026-04-26 22:00 | 35.32761 | -80.32882 | 43083 ft | 403 kts | 207° |
| 2026-04-26 22:01 | 35.27548 | -80.35417 | 43074 ft | 403 kts | 207° |
| 2026-04-26 22:01 | 35.22331 | -80.37946 | 43060 ft | 403 kts | 207° |
| 2026-04-26 22:02 | 35.17964 | -80.40062 | 43049 ft | 403 kts | 207° |
| 2026-04-26 22:02 | 35.11906 | -80.42993 | 43027 ft | 403 kts | 207° |
| 2026-04-26 22:03 | 35.06696 | -80.45510 | 43045 ft | 402 kts | 207° |
| 2026-04-26 22:03 | 35.01492 | -80.48021 | 43047 ft | 402 kts | 207° |
| 2026-04-26 22:04 | 34.96288 | -80.50528 | 43047 ft | 402 kts | 207° |
| 2026-04-26 22:04 | 34.91086 | -80.53030 | 43046 ft | 402 kts | 207° |
| 2026-04-26 22:05 | 34.85889 | -80.55527 | 43042 ft | 401 kts | 208° |
| 2026-04-26 22:05 | 34.80699 | -80.58017 | 43039 ft | 401 kts | 208° |
| 2026-04-26 22:06 | 34.75504 | -80.60507 | 43031 ft | 401 kts | 208° |
| 2026-04-26 22:06 | 34.70314 | -80.62991 | 43031 ft | 401 kts | 208° |
| 2026-04-26 22:07 | 34.65218 | -80.65678 | 43039 ft | 394 kts | 217° |
| 2026-04-26 22:07 | 34.61632 | -80.68955 | 43041 ft | 385 kts | 228° |
| 2026-04-26 22:08 | 34.56964 | -80.74019 | 43032 ft | 385 kts | 228° |
| 2026-04-26 22:08 | 34.52971 | -80.78350 | 43029 ft | 385 kts | 228° |
| 2026-04-26 22:09 | 34.48973 | -80.82675 | 43031 ft | 385 kts | 228° |
| 2026-04-26 22:09 | 34.44974 | -80.86997 | 43012 ft | 385 kts | 228° |
| 2026-04-26 22:10 | 34.40977 | -80.91310 | 42995 ft | 385 kts | 228° |
| 2026-04-26 22:10 | 34.36979 | -80.95620 | 43006 ft | 385 kts | 228° |
| 2026-04-26 22:11 | 34.32972 | -80.99863 | 43013 ft | 388 kts | 223° |
| 2026-04-26 22:11 | 34.28155 | -81.03035 | 43029 ft | 403 kts | 206° |
| 2026-04-26 22:12 | 34.22782 | -81.05103 | 43027 ft | 406 kts | 204° |
| 2026-04-26 22:12 | 34.17404 | -81.07188 | 43015 ft | 406 kts | 204° |
| 2026-04-26 22:13 | 34.12888 | -81.08916 | 42984 ft | 406 kts | 204° |
| 2026-04-26 22:13 | 34.07505 | -81.10987 | 42973 ft | 406 kts | 204° |
| 2026-04-26 22:14 | 34.02116 | -81.13050 | 42975 ft | 406 kts | 204° |
| 2026-04-26 22:14 | 33.96761 | -81.15102 | 42975 ft | 407 kts | 204° |
| 2026-04-26 22:15 | 33.91365 | -81.17164 | 42976 ft | 407 kts | 204° |
| 2026-04-26 22:15 | 33.85965 | -81.19226 | 42972 ft | 407 kts | 204° |
| 2026-04-26 22:16 | 33.80560 | -81.21288 | 42968 ft | 407 kts | 204° |
| 2026-04-26 22:16 | 33.75157 | -81.23345 | 42963 ft | 408 kts | 204° |
| 2026-04-26 22:17 | 33.69749 | -81.25403 | 42952 ft | 408 kts | 204° |
| 2026-04-26 22:17 | 33.64345 | -81.27454 | 42919 ft | 407 kts | 204° |
| 2026-04-26 22:18 | 33.58946 | -81.29503 | 42953 ft | 407 kts | 205° |
| 2026-04-26 22:18 | 33.53540 | -81.31551 | 42953 ft | 408 kts | 205° |
| 2026-04-26 22:19 | 33.48120 | -81.33601 | 42951 ft | 409 kts | 205° |
| 2026-04-26 22:19 | 33.42694 | -81.35651 | 42953 ft | 409 kts | 205° |
| 2026-04-26 22:20 | 33.37268 | -81.37699 | 42952 ft | 409 kts | 205° |
| 2026-04-26 22:20 | 33.31845 | -81.39742 | 42956 ft | 409 kts | 205° |
| 2026-04-26 22:21 | 33.26444 | -81.41847 | 42956 ft | 406 kts | 207° |
| 2026-04-26 22:21 | 33.21127 | -81.44143 | 42956 ft | 407 kts | 207° |
| 2026-04-26 22:22 | 33.15797 | -81.46420 | 42955 ft | 407 kts | 207° |
| 2026-04-26 22:22 | 33.10467 | -81.48704 | 42947 ft | 407 kts | 207° |
| 2026-04-26 22:23 | 33.05132 | -81.50983 | 42944 ft | 407 kts | 207° |
| 2026-04-26 22:23 | 32.99797 | -81.53262 | 42936 ft | 407 kts | 207° |
| 2026-04-26 22:24 | 32.94464 | -81.55536 | 42928 ft | 407 kts | 207° |
| 2026-04-26 22:24 | 32.89153 | -81.57862 | 42929 ft | 406 kts | 208° |
| 2026-04-26 22:25 | 32.83874 | -81.60241 | 42935 ft | 406 kts | 208° |
| 2026-04-26 22:25 | 32.78600 | -81.62632 | 42939 ft | 406 kts | 208° |
| 2026-04-26 22:26 | 32.73320 | -81.65016 | 42947 ft | 406 kts | 208° |
| 2026-04-26 22:26 | 32.68043 | -81.67399 | 42947 ft | 406 kts | 208° |
| 2026-04-26 22:27 | 32.62761 | -81.69779 | 42944 ft | 406 kts | 208° |
| 2026-04-26 22:27 | 32.57515 | -81.72141 | 42918 ft | 406 kts | 208° |
| 2026-04-26 22:28 | 32.52235 | -81.74515 | 42921 ft | 406 kts | 208° |
| 2026-04-26 22:28 | 32.46946 | -81.76889 | 42921 ft | 407 kts | 208° |
| 2026-04-26 22:29 | 32.41656 | -81.79262 | 42917 ft | 407 kts | 208° |
| 2026-04-26 22:29 | 32.36360 | -81.81634 | 42916 ft | 407 kts | 208° |
| 2026-04-26 22:30 | 32.31072 | -81.84000 | 42926 ft | 406 kts | 208° |
| 2026-04-26 22:30 | 32.25782 | -81.86363 | 42928 ft | 406 kts | 208° |
| 2026-04-26 22:31 | 32.20493 | -81.88724 | 42920 ft | 407 kts | 208° |
| 2026-04-26 22:31 | 32.15198 | -81.91083 | 42923 ft | 407 kts | 208° |
| 2026-04-26 22:32 | 32.09789 | -81.93160 | 42927 ft | 409 kts | 204° |
| 2026-04-26 22:32 | 32.04369 | -81.95189 | 42921 ft | 409 kts | 205° |
| 2026-04-26 22:33 | 31.96238 | -81.98227 | 42920 ft | 409 kts | 205° |
| 2026-04-26 22:34 | 31.90814 | -82.00253 | 42918 ft | 409 kts | 204° |
| 2026-04-26 22:34 | 31.85384 | -82.02136 | 42920 ft | 413 kts | 199° |
| 2026-04-26 22:35 | 31.79760 | -82.03536 | 42907 ft | 412 kts | 199° |
| 2026-04-26 22:35 | 31.74150 | -82.04970 | 42902 ft | 413 kts | 199° |
| 2026-04-26 22:36 | 31.68528 | -82.06384 | 42902 ft | 413 kts | 199° |
| 2026-04-26 22:36 | 31.62906 | -82.07806 | 42925 ft | 413 kts | 199° |
| 2026-04-26 22:37 | 31.57281 | -82.09222 | 42926 ft | 414 kts | 199° |
| 2026-04-26 22:37 | 31.51655 | -82.10639 | 42924 ft | 413 kts | 199° |
| 2026-04-26 22:38 | 31.46032 | -82.12053 | 42920 ft | 414 kts | 199° |
| 2026-04-26 22:38 | 31.40404 | -82.13466 | 42915 ft | 414 kts | 199° |
| 2026-04-26 22:39 | 31.34774 | -82.14878 | 42910 ft | 414 kts | 199° |
| 2026-04-26 22:39 | 31.29145 | -82.16288 | 42912 ft | 414 kts | 199° |
| 2026-04-26 22:40 | 31.23529 | -82.17693 | 42919 ft | 412 kts | 199° |
| 2026-04-26 22:40 | 31.17956 | -82.19086 | 42919 ft | 412 kts | 199° |
| 2026-04-26 22:41 | 31.12350 | -82.20485 | 42930 ft | 412 kts | 199° |
| 2026-04-26 22:41 | 31.06745 | -82.21883 | 42932 ft | 412 kts | 199° |
| 2026-04-26 22:42 | 31.01144 | -82.23277 | 42948 ft | 412 kts | 199° |
| 2026-04-26 22:42 | 30.95551 | -82.24668 | 42953 ft | 411 kts | 199° |
| 2026-04-26 22:43 | 30.89957 | -82.26058 | 42970 ft | 411 kts | 199° |
| 2026-04-26 22:43 | 30.84362 | -82.27446 | 42978 ft | 411 kts | 199° |
| 2026-04-26 22:44 | 30.78770 | -82.28832 | 42978 ft | 411 kts | 199° |
| 2026-04-26 22:44 | 30.73175 | -82.30216 | 43008 ft | 411 kts | 198° |
| 2026-04-26 22:45 | 30.67620 | -82.31587 | 43010 ft | 411 kts | 197° |
| 2026-04-26 22:45 | 30.61852 | -82.32374 | 43018 ft | 415 kts | 192° |
| 2026-04-26 22:46 | 30.56108 | -82.33106 | 43024 ft | 416 kts | 192° |
| 2026-04-26 22:46 | 30.50392 | -82.33813 | 43027 ft | 416 kts | 192° |
| 2026-04-26 22:47 | 30.44638 | -82.34534 | 43028 ft | 416 kts | 192° |
| 2026-04-26 22:47 | 30.38876 | -82.35250 | 43020 ft | 416 kts | 192° |
| 2026-04-26 22:48 | 30.33116 | -82.35967 | 43020 ft | 416 kts | 192° |
| 2026-04-26 22:48 | 30.27352 | -82.36683 | 43006 ft | 417 kts | 192° |
| 2026-04-26 22:49 | 30.21589 | -82.37398 | 43004 ft | 417 kts | 192° |
| 2026-04-26 22:49 | 30.15797 | -82.37896 | 42982 ft | 422 kts | 182° |
| 2026-04-26 22:50 | 30.09932 | -82.37541 | 42989 ft | 422 kts | 183° |
| 2026-04-26 22:50 | 30.04064 | -82.37232 | 42969 ft | 422 kts | 182° |
| 2026-04-26 22:51 | 29.98196 | -82.36895 | 42959 ft | 422 kts | 182° |
| 2026-04-26 22:51 | 29.92322 | -82.36573 | 42941 ft | 422 kts | 182° |
| 2026-04-26 22:52 | 29.86453 | -82.36244 | 42928 ft | 422 kts | 182° |
| 2026-04-26 22:52 | 29.80586 | -82.35919 | 42924 ft | 422 kts | 182° |
| 2026-04-26 22:53 | 29.74715 | -82.35593 | 42918 ft | 422 kts | 182° |
| 2026-04-26 22:53 | 29.68848 | -82.35268 | 42920 ft | 422 kts | 182° |
| 2026-04-26 22:54 | 29.63019 | -82.34944 | 42327 ft | 420 kts | 183° |
| 2026-04-26 22:54 | 29.60102 | -82.34782 | 41760 ft | 419 kts | 183° |
| 2026-04-26 22:54 | 29.57182 | -82.34624 | 41226 ft | 421 kts | 183° |
| 2026-04-26 22:54 | 29.54245 | -82.34462 | 40672 ft | 424 kts | 183° |
| 2026-04-26 22:55 | 29.51293 | -82.34298 | 40111 ft | 426 kts | 183° |
| 2026-04-26 22:55 | 29.48327 | -82.34134 | 39552 ft | 428 kts | 184° |
| 2026-04-26 22:55 | 29.45350 | -82.33971 | 38990 ft | 430 kts | 184° |
| 2026-04-26 22:55 | 29.42354 | -82.33806 | 38392 ft | 432 kts | 184° |
| 2026-04-26 22:56 | 29.39345 | -82.33587 | 37803 ft | 435 kts | 180° |
| 2026-04-26 22:56 | 29.36335 | -82.33222 | 37231 ft | 435 kts | 180° |
| 2026-04-26 22:56 | 29.33325 | -82.32842 | 36658 ft | 435 kts | 180° |
| 2026-04-26 22:56 | 29.30322 | -82.32484 | 36080 ft | 433 kts | 179° |
| 2026-04-26 22:57 | 29.27334 | -82.32135 | 35516 ft | 431 kts | 179° |
| 2026-04-26 22:57 | 29.24358 | -82.31780 | 34950 ft | 429 kts | 179° |
| 2026-04-26 22:57 | 29.21397 | -82.31427 | 34388 ft | 427 kts | 179° |
| 2026-04-26 22:57 | 29.18445 | -82.31076 | 33805 ft | 425 kts | 179° |
| 2026-04-26 22:58 | 29.15505 | -82.30725 | 33222 ft | 425 kts | 178° |
| 2026-04-26 22:58 | 29.12555 | -82.30375 | 32659 ft | 427 kts | 178° |
| 2026-04-26 22:58 | 29.09597 | -82.30023 | 32095 ft | 429 kts | 178° |
| 2026-04-26 22:58 | 29.06624 | -82.29670 | 31528 ft | 430 kts | 178° |
| 2026-04-26 22:59 | 29.03638 | -82.29315 | 30958 ft | 432 kts | 178° |
| 2026-04-26 22:59 | 29.00644 | -82.28959 | 30386 ft | 433 kts | 177° |
| 2026-04-26 22:59 | 28.97641 | -82.28602 | 29791 ft | 435 kts | 177° |
| 2026-04-26 22:59 | 28.94629 | -82.28245 | 29196 ft | 435 kts | 177° |
| 2026-04-26 23:00 | 28.91618 | -82.27888 | 28621 ft | 435 kts | 177° |
| 2026-04-26 23:00 | 28.88621 | -82.27532 | 28051 ft | 431 kts | 177° |
| 2026-04-26 23:00 | 28.85655 | -82.27180 | 27486 ft | 426 kts | 177° |
| 2026-04-26 23:00 | 28.82726 | -82.26834 | 26932 ft | 420 kts | 177° |
| 2026-04-26 23:01 | 28.79834 | -82.26493 | 26377 ft | 416 kts | 177° |
| 2026-04-26 23:01 | 28.76973 | -82.26154 | 25834 ft | 411 kts | 177° |
| 2026-04-26 23:01 | 28.74149 | -82.25829 | 25295 ft | 405 kts | 179° |
| 2026-04-26 23:01 | 28.71356 | -82.25740 | 24761 ft | 399 kts | 182° |
| 2026-04-26 23:02 | 28.68596 | -82.25722 | 24239 ft | 394 kts | 182° |
| 2026-04-26 23:02 | 28.66784 | -82.25702 | 23897 ft | 392 kts | 182° |
| 2026-04-26 23:02 | 28.64073 | -82.25653 | 23356 ft | 387 kts | 182° |
| 2026-04-26 23:02 | 28.60553 | -82.25581 | 22665 ft | 371 kts | 182° |
| 2026-04-26 23:03 | 28.58039 | -82.25529 | 22198 ft | 352 kts | 182° |
| 2026-04-26 23:03 | 28.55645 | -82.25485 | 21747 ft | 336 kts | 182° |
| 2026-04-26 23:03 | 28.54085 | -82.25457 | 21451 ft | 327 kts | 182° |
| 2026-04-26 23:03 | 28.51140 | -82.25403 | 20894 ft | 312 kts | 183° |
| 2026-04-26 23:04 | 28.49687 | -82.25385 | 20620 ft | 306 kts | 183° |
| 2026-04-26 23:04 | 28.47590 | -82.25364 | 20223 ft | 297 kts | 183° |
| 2026-04-26 23:04 | 28.45549 | -82.25338 | 19838 ft | 290 kts | 183° |
| 2026-04-26 23:04 | 28.43548 | -82.25310 | 19455 ft | 284 kts | 183° |
| 2026-04-26 23:05 | 28.41589 | -82.25285 | 19086 ft | 279 kts | 183° |
| 2026-04-26 23:05 | 28.39662 | -82.25166 | 18719 ft | 276 kts | 179° |
| 2026-04-26 23:05 | 28.37761 | -82.25007 | 18361 ft | 272 kts | 180° |
| 2026-04-26 23:05 | 28.35877 | -82.24850 | 17995 ft | 269 kts | 179° |
| 2026-04-26 23:06 | 28.34034 | -82.24695 | 17663 ft | 264 kts | 180° |
| 2026-04-26 23:06 | 28.32217 | -82.24544 | 17322 ft | 260 kts | 180° |
| 2026-04-26 23:06 | 28.30425 | -82.24395 | 17016 ft | 255 kts | 180° |
| 2026-04-26 23:06 | 28.28679 | -82.24248 | 16842 ft | 249 kts | 180° |
| 2026-04-26 23:07 | 28.26952 | -82.24101 | 16485 ft | 249 kts | 180° |
| 2026-04-26 23:07 | 28.25238 | -82.23957 | 16210 ft | 245 kts | 180° |
| 2026-04-26 23:07 | 28.23538 | -82.23815 | 15938 ft | 245 kts | 180° |
| 2026-04-26 23:07 | 28.21843 | -82.23674 | 15670 ft | 244 kts | 180° |
| 2026-04-26 23:08 | 28.20154 | -82.23482 | 15401 ft | 245 kts | 175° |
| 2026-04-26 23:08 | 28.18476 | -82.23178 | 15135 ft | 244 kts | 174° |
| 2026-04-26 23:08 | 28.16803 | -82.22857 | 14876 ft | 243 kts | 174° |
| 2026-04-26 23:08 | 28.15137 | -82.22537 | 14617 ft | 243 kts | 174° |
| 2026-04-26 23:09 | 28.13475 | -82.22219 | 14356 ft | 242 kts | 173° |
| 2026-04-26 23:09 | 28.11839 | -82.21905 | 14097 ft | 242 kts | 173° |
| 2026-04-26 23:09 | 28.10183 | -82.21589 | 13844 ft | 241 kts | 173° |
| 2026-04-26 23:09 | 28.08533 | -82.21275 | 13627 ft | 240 kts | 173° |
| 2026-04-26 23:10 | 28.06888 | -82.20967 | 13415 ft | 239 kts | 173° |
| 2026-04-26 23:10 | 28.05246 | -82.20664 | 13211 ft | 239 kts | 174° |
| 2026-04-26 23:10 | 28.03607 | -82.20363 | 12992 ft | 238 kts | 173° |
| 2026-04-26 23:10 | 28.01977 | -82.20067 | 12742 ft | 237 kts | 173° |
| 2026-04-26 23:11 | 28.00350 | -82.19776 | 12490 ft | 236 kts | 173° |
| 2026-04-26 23:11 | 27.98733 | -82.19495 | 12240 ft | 235 kts | 174° |
| 2026-04-26 23:11 | 27.97119 | -82.19219 | 11992 ft | 234 kts | 173° |
| 2026-04-26 23:11 | 27.95507 | -82.18946 | 11742 ft | 234 kts | 174° |
| 2026-04-26 23:12 | 27.93899 | -82.18675 | 11507 ft | 233 kts | 173° |
| 2026-04-26 23:12 | 27.92296 | -82.18414 | 11257 ft | 233 kts | 173° |
| 2026-04-26 23:12 | 27.90698 | -82.18158 | 10969 ft | 232 kts | 173° |
| 2026-04-26 23:12 | 27.89105 | -82.17912 | 10683 ft | 230 kts | 174° |
| 2026-04-26 23:13 | 27.87519 | -82.17675 | 10404 ft | 229 kts | 173° |
| 2026-04-26 23:13 | 27.85938 | -82.17448 | 10125 ft | 230 kts | 174° |
| 2026-04-26 23:13 | 27.84346 | -82.17223 | 9845 ft | 230 kts | 174° |
| 2026-04-26 23:13 | 27.82763 | -82.16988 | 9534 ft | 229 kts | 174° |
| 2026-04-26 23:14 | 27.81178 | -82.16723 | 9229 ft | 236 kts | 174° |
| 2026-04-26 23:14 | 27.79487 | -82.16441 | 8887 ft | 253 kts | 174° |
| 2026-04-26 23:14 | 27.77722 | -82.16147 | 8543 ft | 257 kts | 174° |
| 2026-04-26 23:14 | 27.75968 | -82.16086 | 8193 ft | 249 kts | 195° |
| 2026-04-26 23:15 | 27.74462 | -82.16928 | 7854 ft | 240 kts | 227° |
| 2026-04-26 23:15 | 27.73589 | -82.18464 | 7584 ft | 232 kts | 252° |
| 2026-04-26 23:15 | 27.73135 | -82.20208 | 7384 ft | 231 kts | 258° |
| 2026-04-26 23:15 | 27.72753 | -82.21964 | 7198 ft | 229 kts | 260° |
| 2026-04-26 23:16 | 27.72434 | -82.23726 | 7013 ft | 228 kts | 262° |
| 2026-04-26 23:16 | 27.72123 | -82.25464 | 6824 ft | 225 kts | 261° |
| 2026-04-26 23:16 | 27.71819 | -82.27178 | 6643 ft | 226 kts | 261° |
| 2026-04-26 23:16 | 27.71520 | -82.28923 | 6461 ft | 226 kts | 262° |
| 2026-04-26 23:17 | 27.71226 | -82.30657 | 6266 ft | 224 kts | 263° |
| 2026-04-26 23:17 | 27.71052 | -82.32407 | 6068 ft | 225 kts | 266° |
| 2026-04-26 23:17 | 27.70915 | -82.34166 | 5869 ft | 224 kts | 267° |
| 2026-04-26 23:17 | 27.70773 | -82.35897 | 5670 ft | 220 kts | 267° |
| 2026-04-26 23:18 | 27.70626 | -82.37617 | 5474 ft | 221 kts | 266° |
| 2026-04-26 23:18 | 27.70486 | -82.39344 | 5280 ft | 220 kts | 267° |
| 2026-04-26 23:18 | 27.70341 | -82.41053 | 5082 ft | 218 kts | 267° |
| 2026-04-26 23:18 | 27.70186 | -82.42757 | 4888 ft | 219 kts | 267° |
| 2026-04-26 23:19 | 27.70028 | -82.44472 | 4696 ft | 220 kts | 266° |
| 2026-04-26 23:19 | 27.69878 | -82.46190 | 4496 ft | 219 kts | 267° |
| 2026-04-26 23:19 | 27.69724 | -82.47891 | 4296 ft | 217 kts | 266° |
| 2026-04-26 23:19 | 27.69582 | -82.49589 | 4097 ft | 218 kts | 267° |
| 2026-04-26 23:20 | 27.69446 | -82.51279 | 3890 ft | 215 kts | 267° |
| 2026-04-26 23:20 | 27.69301 | -82.52957 | 3716 ft | 214 kts | 266° |
| 2026-04-26 23:20 | 27.69163 | -82.54621 | 3544 ft | 213 kts | 266° |
| 2026-04-26 23:20 | 27.69031 | -82.56289 | 3375 ft | 212 kts | 267° |
| 2026-04-26 23:21 | 27.68896 | -82.57894 | 3205 ft | 199 kts | 267° |
| 2026-04-26 23:21 | 27.68895 | -82.59402 | 3030 ft | 187 kts | 285° |
| 2026-04-26 23:21 | 27.69433 | -82.60686 | 2863 ft | 177 kts | 302° |
| 2026-04-26 23:21 | 27.70107 | -82.61805 | 2692 ft | 169 kts | 303° |
| 2026-04-26 23:22 | 27.70778 | -82.62876 | 2523 ft | 165 kts | 304° |
| 2026-04-26 23:22 | 27.71444 | -82.63914 | 2350 ft | 162 kts | 304° |
| 2026-04-26 23:22 | 27.72104 | -82.64941 | 2176 ft | 161 kts | 304° |
| 2026-04-26 23:22 | 27.72981 | -82.65695 | 1992 ft | 164 kts | 341° |
| 2026-04-26 23:23 | 27.74121 | -82.65906 | 1984 ft | 168 kts | 346° |
| 2026-04-26 23:23 | 27.75278 | -82.66129 | 1984 ft | 169 kts | 346° |
| 2026-04-26 23:23 | 27.76454 | -82.66338 | 1988 ft | 173 kts | 347° |
| 2026-04-26 23:23 | 27.77628 | -82.66532 | 1991 ft | 168 kts | 347° |
| 2026-04-26 23:24 | 27.78767 | -82.66728 | 1988 ft | 160 kts | 346° |
| 2026-04-26 23:24 | 27.79837 | -82.66918 | 1943 ft | 153 kts | 347° |
| 2026-04-26 23:24 | 27.80879 | -82.67098 | 1761 ft | 152 kts | 348° |
| 2026-04-26 23:24 | 27.81901 | -82.67275 | 1571 ft | 145 kts | 348° |
| 2026-04-26 23:25 | 27.82877 | -82.67443 | 1378 ft | 139 kts | 346° |
| 2026-04-26 23:25 | 27.83835 | -82.67608 | 1215 ft | 140 kts | 346° |
| 2026-04-26 23:25 | 27.84774 | -82.67768 | 1043 ft | 130 kts | 346° |
| 2026-04-26 23:25 | 27.85600 | -82.67906 | 887 ft | 113 kts | 345° |
| 2026-04-26 23:26 | 27.86346 | -82.68036 | 746 ft | 103 kts | 344° |
| 2026-04-26 23:26 | 27.87056 | -82.68155 | 593 ft | 104 kts | 348° |
| 2026-04-26 23:26 | 27.87756 | -82.68258 | 452 ft | 101 kts | 347° |
| 2026-04-26 23:26 | 27.88486 | -82.68402 | 323 ft | 109 kts | 349° |
| 2026-04-26 23:27 | 27.89240 | -82.68529 | 192 ft | 107 kts | 347° |
| 2026-04-26 23:27 | 27.89976 | -82.68656 | 37 ft | 105 kts | 347° |
| 2026-04-26 23:27 | 27.90558 | -82.68764 | 19 ft | 54 kts | 352° |
| 2026-04-26 23:27 | 27.90771 | -82.68800 | 18 ft | 41 kts | 351° |
| 2026-04-26 23:28 | 27.91104 | -82.68857 | 16 ft | 19 kts | 352° |
| 2026-04-26 23:28 | 27.91225 | -82.68884 | 15 ft | 16 kts | 321° |
| 2026-04-26 23:28 | 27.91226 | -82.68990 | 18 ft | 13 kts | 261° |
| 2026-04-26 23:28 | 27.91162 | -82.69023 | 18 ft | 12 kts | 171° |
| 2026-04-26 23:29 | 27.91075 | -82.69008 | 18 ft | 13 kts | 171° |
| 2026-04-26 23:29 | 27.90981 | -82.68991 | 18 ft | 14 kts | 171° |
| 2026-04-26 23:29 | 27.90882 | -82.68974 | 19 ft | 15 kts | 171° |
| 2026-04-26 23:29 | 27.90777 | -82.68955 | 19 ft | 16 kts | 171° |
| 2026-04-26 23:30 | 27.90666 | -82.68936 | 19 ft | 17 kts | 171° |
| 2026-04-26 23:30 | 27.90557 | -82.68917 | 19 ft | 15 kts | 171° |
| 2026-04-26 23:30 | 27.90473 | -82.68917 | 19 ft | 12 kts | 229° |
| 2026-04-26 23:30 | 27.90454 | -82.68984 | 19 ft | 5 kts | 213° |
| 2026-04-26 23:31 | 27.90423 | -82.68981 | 19 ft | 0 kts | 168° |